Time;durP1;ratioP1;P1;durP2;ratioP2;P2;SDS_P1;SDS_P2;PMS_P1;PMS_P2;Temp;Humidity;BMP_temperature;BMP_pressure;BME280_temperature;BME280_humidity;BME280_pressure;Samples;Min_cycle;Max_cycle;Signal;HPM_P1;HPM_P2
2022/06/18 00:01:38;;;;;;;9.07;4.20;;;16.90;99.90;;;;;;5105047;28;20042;-85
2022/06/18 00:04:19;;;;;;;7.72;4.10;;;16.90;99.90;;;;;;5103837;28;20039;-85
2022/06/18 00:06:57;;;;;;;6.22;4.10;;;16.90;99.90;;;;;;5104282;28;20040;-85
2022/06/18 00:09:30;;;;;;;7.95;4.15;;;16.90;99.90;;;;;;5104701;28;20058;-86
2022/06/18 00:14:45;;;;;;;9.07;4.28;;;16.90;99.90;;;;;;5104123;28;20036;-85
2022/06/18 00:17:16;;;;;;;9.88;4.45;;;17.00;99.90;;;;;;5104800;28;20555;-85
2022/06/18 00:19:43;;;;;;;7.00;4.32;;;16.90;99.90;;;;;;5104491;28;20085;-85
2022/06/18 00:22:12;;;;;;;6.72;4.05;;;17.50;99.90;;;;;;5105409;28;20070;-84
2022/06/18 00:24:37;;;;;;;6.70;3.90;;;16.90;99.90;;;;;;5106851;28;20050;-85
2022/06/18 00:27:03;;;;;;;8.95;4.78;;;16.80;99.90;;;;;;5106974;28;20455;-85
2022/06/18 00:29:29;;;;;;;23.55;4.95;;;17.00;99.90;;;;;;5104776;28;20043;-84
2022/06/18 00:31:55;;;;;;;13.00;4.82;;;17.20;99.90;;;;;;5106596;28;20474;-85
2022/06/18 00:34:21;;;;;;;9.73;4.22;;;17.00;99.90;;;;;;5106245;28;20036;-84
2022/06/18 00:36:46;;;;;;;9.50;4.13;;;17.90;99.90;;;;;;5103373;28;20054;-85
2022/06/18 00:39:16;;;;;;;8.35;4.28;;;17.70;99.90;;;;;;5103713;28;20361;-84
2022/06/18 00:41:44;;;;;;;7.70;3.40;;;17.10;99.90;;;;;;5106349;28;20051;-84
2022/06/18 00:44:30;;;;;;;8.93;4.38;;;17.50;99.90;;;;;;5105216;28;20574;-85
2022/06/18 00:47:23;;;;;;;6.10;4.10;;;17.10;99.90;;;;;;5105173;28;20043;-84
2022/06/18 00:50:10;;;;;;;8.13;4.47;;;17.10;99.90;;;;;;5104662;28;20044;-84
2022/06/18 00:53:01;;;;;;;15.63;5.43;;;17.10;99.90;;;;;;5103103;28;20065;-84
2022/06/18 00:55:37;;;;;;;11.15;3.97;;;17.10;99.90;;;;;;5102090;28;20048;-84
2022/06/18 00:58:05;;;;;;;9.88;4.38;;;17.10;99.90;;;;;;5103576;28;20056;-85
2022/06/18 01:00:36;;;;;;;7.85;4.25;;;17.10;99.90;;;;;;5103583;28;20048;-84
2022/06/18 01:03:02;;;;;;;8.60;4.40;;;17.80;99.90;;;;;;5082752;28;20076;-84
2022/06/18 01:05:36;;;;;;;6.15;3.70;;;17.10;99.90;;;;;;5095901;28;20040;-84
2022/06/18 01:08:12;;;;;;;7.03;3.80;;;17.10;99.90;;;;;;5102128;28;20394;-84
2022/06/18 01:10:41;;;;;;;6.82;4.32;;;17.10;99.90;;;;;;5100100;28;20044;-84
2022/06/18 01:13:11;;;;;;;8.05;4.65;;;17.10;99.90;;;;;;5099482;28;20498;-85
2022/06/18 01:15:39;;;;;;;5.68;3.75;;;17.10;99.90;;;;;;5101865;28;20044;-85
2022/06/18 01:18:05;;;;;;;8.07;4.38;;;17.80;99.90;;;;;;5100736;28;20048;-85
2022/06/18 01:20:38;;;;;;;6.22;3.85;;;17.10;99.90;;;;;;5100941;28;20040;-85
2022/06/18 01:23:31;;;;;;;8.30;4.60;;;17.00;99.90;;;;;;5099525;28;20535;-85
2022/06/18 01:25:56;;;;;;;6.32;4.25;;;17.00;99.90;;;;;;5100651;28;20413;-85
2022/06/18 01:28:22;;;;;;;7.75;4.50;;;16.90;99.90;;;;;;5100381;28;20047;-85
2022/06/18 01:30:48;;;;;;;6.82;4.05;;;16.80;99.90;;;;;;5099979;28;20048;-85
2022/06/18 01:33:15;;;;;;;6.57;4.50;;;16.80;99.90;;;;;;5100542;28;20046;-85
2022/06/18 01:35:47;;;;;;;8.65;4.25;;;17.60;99.90;;;;;;5082014;28;20143;-85
2022/06/18 01:38:15;;;;;;;8.20;4.68;;;16.70;99.90;;;;;;5099286;28;20243;-85
2022/06/18 01:44:09;;;;;;;7.88;5.20;;;16.70;99.90;;;;;;5088714;28;20150;-85
2022/06/18 01:46:37;;;;;;;6.53;4.82;;;16.60;99.90;;;;;;5100378;28;20044;-84
2022/06/18 01:49:06;;;;;;;10.45;4.65;;;16.60;99.90;;;;;;5098873;28;20047;-85
2022/06/18 01:51:39;;;;;;;9.15;5.22;;;17.30;99.90;;;;;;5098877;28;20048;-85
2022/06/18 01:54:21;;;;;;;10.05;5.15;;;16.60;99.90;;;;;;5082018;28;20052;-84
2022/06/18 01:59:34;;;;;;;8.38;5.70;;;16.60;99.90;;;;;;4991653;28;20059;-75
2022/06/18 02:02:03;;;;;;;9.43;5.43;;;16.60;99.90;;;;;;4993857;28;20070;-75
2022/06/18 02:04:29;;;;;;;12.48;6.10;;;16.50;99.90;;;;;;4993503;28;20050;-75
2022/06/18 02:06:55;;;;;;;9.85;5.53;;;16.50;99.90;;;;;;4993916;28;20050;-75
2022/06/18 02:09:32;;;;;;;9.23;5.43;;;16.60;99.90;;;;;;4994008;28;20045;-75
2022/06/18 02:12:03;;;;;;;11.57;6.03;;;16.60;99.90;;;;;;4993323;28;20469;-75
2022/06/18 02:14:30;;;;;;;11.05;5.68;;;16.60;99.90;;;;;;4993726;28;20042;-75
2022/06/18 02:16:57;;;;;;;14.02;5.70;;;16.70;99.90;;;;;;4993682;28;20073;-75
2022/06/18 02:19:23;;;;;;;10.10;5.50;;;16.80;99.90;;;;;;4993450;28;20046;-75
2022/06/18 02:21:54;;;;;;;12.63;6.32;;;16.80;99.90;;;;;;4993293;28;20277;-75
2022/06/18 02:24:20;;;;;;;11.15;6.05;;;16.80;99.90;;;;;;4992868;28;20049;-75
2022/06/18 02:26:47;;;;;;;10.27;6.35;;;16.90;99.90;;;;;;4993347;28;20065;-75
2022/06/18 02:29:23;;;;;;;12.90;6.75;;;17.60;99.90;;;;;;4993598;28;20054;-75
2022/06/18 02:31:50;;;;;;;10.40;5.82;;;17.10;99.90;;;;;;4993176;28;20497;-75
2022/06/18 02:34:19;;;;;;;11.32;7.30;;;17.20;99.90;;;;;;4993585;28;20484;-74
2022/06/18 02:36:45;;;;;;;18.02;6.93;;;17.20;99.90;;;;;;4993238;28;20118;-75
2022/06/18 02:39:23;;;;;;;9.75;6.32;;;17.20;99.90;;;;;;4993454;28;20050;-75
2022/06/18 02:41:49;;;;;;;15.65;6.68;;;17.20;99.90;;;;;;4993508;28;20038;-75
2022/06/18 02:44:15;;;;;;;10.07;6.43;;;17.20;99.90;;;;;;4993408;28;20042;-75
2022/06/18 02:46:41;;;;;;;13.68;6.72;;;17.30;99.90;;;;;;4993245;28;20054;-75
2022/06/18 02:49:10;;;;;;;15.65;7.00;;;17.30;99.90;;;;;;4993344;28;20489;-75
2022/06/18 02:51:36;;;;;;;13.68;7.00;;;17.30;99.90;;;;;;4992981;28;20125;-75
2022/06/18 02:54:03;;;;;;;14.35;7.65;;;17.20;99.90;;;;;;4993368;28;20070;-75
2022/06/18 02:56:29;;;;;;;14.40;7.13;;;17.20;99.90;;;;;;4991867;28;20056;-75
2022/06/18 02:58:55;;;;;;;13.23;8.32;;;17.20;99.90;;;;;;5028406;28;20128;-75
2022/06/18 03:01:24;;;;;;;15.27;7.70;;;17.10;99.90;;;;;;5032510;28;20045;-75
2022/06/18 03:03:55;;;;;;;13.18;7.75;;;17.30;99.90;;;;;;5032716;28;20061;-75
2022/06/18 03:06:25;;;;;;;13.07;7.60;;;17.00;99.90;;;;;;5032208;28;20120;-75
2022/06/18 03:08:51;;;;;;;15.23;9.43;;;17.00;99.90;;;;;;5032455;28;20128;-75
2022/06/18 03:14:04;;;;;;;;;;;17.10;99.90;;;;;;5037065;28;20091;-75
2022/06/18 03:16:30;;;;;;;;;;;17.10;99.90;;;;;;5036782;28;19925;-75
2022/06/18 03:18:57;;;;;;;14.53;7.87;;;17.10;99.90;;;;;;5036826;28;19929;-75
2022/06/18 03:21:42;;;;;;;13.10;8.00;;;17.10;99.90;;;;;;5036062;28;20046;-75
2022/06/18 03:24:08;;;;;;;13.20;7.70;;;17.10;99.90;;;;;;5036455;28;20492;-75
2022/06/18 03:26:35;;;;;;;16.60;8.20;;;17.00;99.90;;;;;;5036323;28;20033;-75
2022/06/18 03:29:02;;;;;;;14.07;8.85;;;17.00;99.90;;;;;;5018597;28;20052;-75
2022/06/18 03:31:29;;;;;;;13.75;8.48;;;17.00;99.90;;;;;;5018472;28;20459;-75
2022/06/18 03:33:54;;;;;;;15.82;8.77;;;16.90;99.90;;;;;;5035807;28;20504;-75
2022/06/18 03:36:21;;;;;;;15.75;9.07;;;17.00;99.90;;;;;;5035828;28;20041;-75
2022/06/18 03:38:48;;;;;;;17.27;9.98;;;17.00;99.90;;;;;;5036029;28;20049;-75
2022/06/18 03:41:14;;;;;;;17.85;9.20;;;17.00;99.90;;;;;;5036148;28;20041;-75
2022/06/18 03:43:40;;;;;;;14.93;8.45;;;17.00;99.90;;;;;;5036002;28;20060;-75
2022/06/18 03:46:11;;;;;;;17.05;9.38;;;17.00;99.90;;;;;;5035616;28;20073;-75
2022/06/18 03:48:45;;;;;;;18.27;8.93;;;17.10;99.90;;;;;;5035924;28;20116;-75
2022/06/18 03:51:12;;;;;;;17.67;9.48;;;17.10;99.90;;;;;;5035539;28;20050;-76
2022/06/18 03:53:38;;;;;;;21.42;9.77;;;17.20;99.90;;;;;;5016399;28;20070;-75
2022/06/18 03:56:04;;;;;;;20.10;9.98;;;17.20;99.90;;;;;;5027951;28;20510;-75
2022/06/18 03:58:30;;;;;;;16.83;9.98;;;17.20;99.90;;;;;;5034180;28;20542;-75
2022/06/18 04:00:56;;;;;;;23.30;10.40;;;17.20;99.90;;;;;;5035653;28;20080;-75
2022/06/18 04:03:21;;;;;;;18.17;10.38;;;17.20;99.90;;;;;;5035324;28;20091;-75
2022/06/18 04:05:47;;;;;;;14.57;9.82;;;17.30;99.90;;;;;;5035115;28;20512;-75
2022/06/18 04:08:14;;;;;;;18.90;11.45;;;17.30;99.90;;;;;;5035769;28;20052;-75
2022/06/18 04:10:40;;;;;;;20.95;10.98;;;17.30;99.90;;;;;;5035573;28;20403;-74
2022/06/18 04:13:06;;;;;;;17.80;11.75;;;17.40;99.90;;;;;;5035255;28;20034;-74
2022/06/18 04:15:31;;;;;;;21.48;12.15;;;17.40;99.90;;;;;;5035187;28;20052;-74
2022/06/18 04:17:57;;;;;;;17.85;11.77;;;17.40;99.90;;;;;;5035427;28;20084;-74
2022/06/18 04:20:30;;;;;;;18.33;11.60;;;17.50;99.90;;;;;;5034868;28;20060;-74
2022/06/18 04:22:56;;;;;;;19.90;11.65;;;17.50;99.90;;;;;;5034352;28;20048;-74
2022/06/18 04:25:22;;;;;;;21.40;12.13;;;17.50;99.90;;;;;;5035103;28;20128;-74
2022/06/18 04:27:48;;;;;;;22.20;12.32;;;17.60;99.90;;;;;;5035107;28;20464;-74
2022/06/18 04:30:15;;;;;;;18.63;11.65;;;17.70;99.90;;;;;;5034287;28;20403;-74
2022/06/18 04:32:41;;;;;;;28.55;13.23;;;17.80;99.90;;;;;;5034624;28;20077;-74
2022/06/18 04:35:09;;;;;;;20.42;13.45;;;17.90;99.90;;;;;;5034959;28;20452;-74
2022/06/18 04:37:35;;;;;;;26.10;13.75;;;18.00;99.90;;;;;;5035350;28;20446;-74
2022/06/18 04:40:01;;;;;;;22.85;12.77;;;18.00;99.90;;;;;;5034452;28;20037;-74
2022/06/18 04:42:27;;;;;;;17.60;11.98;;;18.20;99.90;;;;;;5034315;28;20052;-74
2022/06/18 04:44:53;;;;;;;19.92;12.25;;;18.10;99.90;;;;;;5034513;28;20503;-74
2022/06/18 04:47:19;;;;;;;24.75;13.85;;;18.00;99.90;;;;;;5034750;28;20045;-74
2022/06/18 04:49:44;;;;;;;28.30;14.00;;;18.00;99.90;;;;;;5034823;28;20438;-74
2022/06/18 04:52:10;;;;;;;19.70;12.48;;;18.20;99.90;;;;;;5034635;28;20484;-74
2022/06/18 04:54:36;;;;;;;27.73;13.63;;;18.50;99.90;;;;;;5034359;28;20158;-74
2022/06/18 04:57:02;;;;;;;20.08;11.80;;;18.90;99.90;;;;;;5034313;28;20045;-74
2022/06/18 04:59:27;;;;;;;24.05;11.23;;;19.30;99.90;;;;;;5034231;28;20053;-74
2022/06/18 05:02:12;;;;;;;18.80;11.50;;;19.80;99.90;;;;;;5034036;28;20140;-74
2022/06/18 05:04:38;;;;;;;22.35;12.25;;;20.30;99.90;;;;;;5034150;28;20049;-74
2022/06/18 05:07:04;;;;;;;20.65;12.27;;;20.60;99.90;;;;;;5034600;28;20037;-74
2022/06/18 05:09:29;;;;;;;28.63;13.15;;;20.90;99.90;;;;;;5034389;28;20096;-74
2022/06/18 05:11:55;;;;;;;17.40;11.20;;;21.00;99.90;;;;;;5034335;28;20048;-74
2022/06/18 05:14:21;;;;;;;25.83;12.35;;;21.30;99.90;;;;;;5033850;28;20399;-74
2022/06/18 05:16:46;;;;;;;25.95;11.75;;;21.40;99.90;;;;;;5031875;28;20087;-74
2022/06/18 05:19:24;;;;;;;23.75;11.25;;;21.90;99.90;;;;;;5034098;28;20037;-74
2022/06/18 05:21:50;;;;;;;22.88;12.23;;;22.20;91.80;;;;;;5033916;28;20055;-74
2022/06/18 05:24:16;;;;;;;23.38;12.60;;;22.40;86.60;;;;;;5033414;28;20041;-75
2022/06/18 05:26:47;;;;;;;25.25;10.82;;;22.70;84.20;;;;;;5017316;28;20082;-74
2022/06/18 05:29:14;;;;;;;20.55;10.52;;;22.90;76.50;;;;;;5034075;28;20176;-75
2022/06/18 05:31:39;;;;;;;17.27;10.32;;;23.30;71.70;;;;;;5034084;28;20403;-75
2022/06/18 05:34:05;;;;;;;25.02;10.38;;;23.50;68.40;;;;;;5033787;28;20045;-75
2022/06/18 05:36:30;;;;;;;27.98;11.75;;;23.30;63.70;;;;;;5033270;28;20128;-74
2022/06/18 05:38:57;;;;;;;20.58;10.48;;;23.50;61.10;;;;;;5033910;28;20041;-74
2022/06/18 05:41:23;;;;;;;20.40;10.68;;;22.90;61.80;;;;;;5033892;28;20049;-74
2022/06/18 05:43:49;;;;;;;24.27;11.13;;;22.90;65.40;;;;;;5033845;28;20414;-74
2022/06/18 05:46:15;;;;;;;23.75;10.25;;;23.00;67.30;;;;;;5033381;28;20045;-74
2022/06/18 05:48:41;;;;;;;22.92;10.90;;;23.30;62.00;;;;;;5033434;28;20120;-74
2022/06/18 05:51:07;;;;;;;18.27;8.88;;;23.00;63.20;;;;;;5033487;28;20073;-74
2022/06/18 05:53:32;;;;;;;18.95;9.75;;;22.90;63.50;;;;;;5033201;28;20045;-74
2022/06/18 05:55:58;;;;;;;25.05;10.82;;;23.10;62.80;;;;;;5033024;28;20515;-74
2022/06/18 05:58:24;;;;;;;22.58;11.48;;;22.90;62.60;;;;;;5032795;28;20107;-74
2022/06/18 06:00:50;;;;;;;24.98;10.07;;;23.40;59.30;;;;;;5033157;28;20077;-74
2022/06/18 06:03:15;;;;;;;21.15;9.77;;;23.70;56.10;;;;;;5033441;28;20040;-74
2022/06/18 06:05:41;;;;;;;20.27;9.80;;;24.30;49.60;;;;;;5032911;28;20090;-74
2022/06/18 06:08:07;;;;;;;19.73;9.52;;;24.60;42.50;;;;;;5032743;28;20069;-74
2022/06/18 06:13:19;;;;;;;23.02;9.15;;;24.90;40.50;;;;;;5033401;28;20053;-74
2022/06/18 06:15:46;;;;;;;18.70;8.32;;;25.10;32.10;;;;;;5032608;28;20484;-74
2022/06/18 06:18:14;;;;;;;21.40;9.68;;;25.40;32.70;;;;;;5032903;28;20420;-74
2022/06/18 06:20:43;;;;;;;19.77;8.30;;;25.80;27.30;;;;;;5015243;28;20492;-74
2022/06/18 06:23:10;;;;;;;17.58;9.00;;;26.00;23.60;;;;;;5032978;28;20065;-74
2022/06/18 06:25:37;;;;;;;23.85;9.10;;;25.60;22.80;;;;;;5032914;28;20044;-74
2022/06/18 06:28:03;;;;;;;17.10;8.30;;;26.00;17.70;;;;;;5032910;28;20381;-74
2022/06/18 06:30:29;;;;;;;22.25;8.30;;;26.10;19.00;;;;;;5032852;28;20045;-74
2022/06/18 06:32:55;;;;;;;18.52;7.80;;;26.50;17.60;;;;;;5032789;28;20373;-74
2022/06/18 06:35:20;;;;;;;15.50;7.50;;;25.90;19.80;;;;;;5032478;28;20499;-74
2022/06/18 06:37:46;;;;;;;18.08;7.60;;;26.20;15.40;;;;;;5032809;28;20077;-74
2022/06/18 06:40:15;;;;;;;19.20;7.93;;;26.80;11.20;;;;;;5032998;28;20033;-74
2022/06/18 06:42:41;;;;;;;19.52;7.43;;;27.20;6.20;;;;;;5032959;28;20446;-74
2022/06/18 06:45:11;;;;;;;24.00;8.23;;;27.80;2.50;;;;;;5032263;28;20034;-74
2022/06/18 06:47:37;;;;;;;18.63;7.63;;;27.30;3.20;;;;;;5032666;28;20471;-74
2022/06/18 06:50:02;;;;;;;18.83;7.85;;;28.10;1.00;;;;;;5032511;28;20069;-74
2022/06/18 06:52:28;;;;;;;19.23;6.57;;;27.30;1.00;;;;;;5032368;28;20046;-74
2022/06/18 06:57:21;;;;;;;14.15;6.00;;;27.50;1.00;;;;;;5032578;28;20048;-75
2022/06/18 06:57:44;;;;;;;16.17;5.60;;;28.10;1.00;;;;;;5032187;28;20499;-74
2022/06/18 07:00:12;;;;;;;13.73;5.07;;;28.50;1.00;;;;;;5032447;28;20050;-74
2022/06/18 07:02:38;;;;;;;17.45;5.07;;;27.70;1.00;;;;;;5032471;28;20047;-75
2022/06/18 07:05:04;;;;;;;11.40;4.45;;;28.00;1.00;;;;;;5030090;28;20083;-75
2022/06/18 07:07:30;;;;;;;15.60;5.90;;;28.20;1.00;;;;;;5029722;28;20080;-74
2022/06/18 07:09:56;;;;;;;13.45;4.70;;;27.70;1.00;;;;;;5029573;28;20411;-75
2022/06/18 07:12:22;;;;;;;11.80;4.53;;;27.90;1.00;;;;;;5029704;28;20041;-75
2022/06/18 07:14:47;;;;;;;16.83;5.05;;;27.20;1.00;;;;;;5028814;28;20470;-75
2022/06/18 07:17:19;;;;;;;12.45;4.32;;;27.30;1.00;;;;;;5029546;28;20034;-74
2022/06/18 07:19:45;;;;;;;14.30;4.30;;;27.50;1.00;;;;;;5030590;28;20052;-75
2022/06/18 07:22:11;;;;;;;14.88;5.10;;;27.70;1.00;;;;;;5031283;28;20381;-76
2022/06/18 07:24:37;;;;;;;14.10;4.80;;;28.10;1.00;;;;;;5031222;28;20053;-76
2022/06/18 07:27:04;;;;;;;10.40;4.43;;;28.90;1.00;;;;;;5031120;28;20073;-76
2022/06/18 07:29:30;;;;;;;19.95;5.18;;;29.20;1.00;;;;;;5030765;28;20095;-75
2022/06/18 07:32:22;;;;;;;15.48;4.18;;;29.70;1.00;;;;;;5030473;28;20045;-76
2022/06/18 07:34:47;;;;;;;10.55;4.50;;;29.70;1.00;;;;;;5030948;28;20526;-75
2022/06/18 07:37:13;;;;;;;10.45;4.30;;;29.20;1.00;;;;;;5030873;28;20042;-75
2022/06/18 07:39:38;;;;;;;20.13;4.70;;;29.10;1.00;;;;;;5030932;28;20546;-75
2022/06/18 07:42:06;;;;;;;14.90;4.53;;;29.80;1.00;;;;;;5031066;28;20049;-75
2022/06/18 07:44:31;;;;;;;17.23;5.28;;;30.00;1.00;;;;;;5030860;28;20492;-76
2022/06/18 07:46:58;;;;;;;9.27;4.28;;;29.80;1.00;;;;;;5030919;28;20045;-75
2022/06/18 07:49:24;;;;;;;8.60;3.70;;;30.30;1.00;;;;;;5031082;28;20045;-75
2022/06/18 07:51:50;;;;;;;11.77;3.67;;;30.20;1.00;;;;;;5030949;28;20052;-76
2022/06/18 07:54:18;;;;;;;11.70;4.40;;;30.40;1.00;;;;;;5012815;28;20045;-74
2022/06/18 07:56:44;;;;;;;14.90;3.90;;;30.60;1.00;;;;;;5030442;28;20049;-75
2022/06/18 07:59:11;;;;;;;9.00;3.72;;;30.60;1.00;;;;;;5032515;28;20049;-75
2022/06/18 08:01:38;;;;;;;11.02;3.92;;;30.30;1.00;;;;;;5034422;28;20049;-75
2022/06/18 08:04:05;;;;;;;12.93;4.85;;;30.20;1.00;;;;;;5033798;28;20403;-75
2022/06/18 08:06:32;;;;;;;11.50;3.90;;;30.40;1.00;;;;;;5034172;28;20376;-75
2022/06/18 08:08:57;;;;;;;9.57;3.33;;;30.70;1.00;;;;;;5034234;28;20053;-75
2022/06/18 08:11:25;;;;;;;11.38;3.97;;;30.90;1.00;;;;;;5034291;28;20057;-75
2022/06/18 08:13:52;;;;;;;12.38;4.10;;;30.90;1.00;;;;;;5016182;28;20064;-75
2022/06/18 08:16:20;;;;;;;11.63;3.63;;;31.10;1.00;;;;;;5033692;28;20041;-76
2022/06/18 08:18:46;;;;;;;11.23;4.20;;;30.90;1.00;;;;;;5033355;28;20096;-76
2022/06/18 08:21:15;;;;;;;12.15;4.25;;;31.50;1.00;;;;;;5033241;28;20089;-75
2022/06/18 08:23:41;;;;;;;11.50;3.75;;;31.60;1.00;;;;;;5033479;28;20053;-75
2022/06/18 08:26:08;;;;;;;10.38;3.40;;;31.20;1.00;;;;;;5033051;28;20470;-75
2022/06/18 08:28:35;;;;;;;12.13;3.40;;;31.20;1.00;;;;;;5033289;28;20049;-76
2022/06/18 08:31:02;;;;;;;10.45;4.10;;;30.80;1.00;;;;;;5032907;28;20124;-76
2022/06/18 08:33:29;;;;;;;9.73;3.80;;;30.40;1.00;;;;;;5033110;28;20121;-76
2022/06/18 08:35:57;;;;;;;11.07;4.07;;;30.30;1.00;;;;;;5032814;28;20068;-75
2022/06/18 08:38:23;;;;;;;13.35;3.92;;;30.80;1.00;;;;;;5032618;28;20049;-75
2022/06/18 08:41:01;;;;;;;10.27;2.85;;;30.80;1.00;;;;;;5033068;28;20137;-76
2022/06/18 08:43:51;;;;;;;11.23;3.72;;;30.80;1.00;;;;;;5015750;28;20373;-76
2022/06/18 08:46:29;;;;;;;9.02;3.55;;;31.10;1.00;;;;;;5032844;28;20059;-75
2022/06/18 08:49:12;;;;;;;10.93;3.70;;;29.90;1.00;;;;;;5033020;28;20128;-76
2022/06/18 08:51:41;;;;;;;7.22;2.70;;;28.80;1.00;;;;;;5033092;28;20057;-76
2022/06/18 08:54:13;;;;;;;7.57;2.78;;;29.30;1.00;;;;;;5032996;28;20048;-75
2022/06/18 08:56:57;;;;;;;10.43;3.13;;;30.00;1.00;;;;;;5033286;28;20038;-75
2022/06/18 08:59:42;;;;;;;6.22;2.58;;;30.40;1.00;;;;;;5032657;28;20092;-76
2022/06/18 09:02:23;;;;;;;16.75;3.15;;;30.30;1.00;;;;;;5033218;28;20049;-76
2022/06/18 09:04:53;;;;;;;6.97;2.72;;;30.20;1.00;;;;;;5033355;28;20053;-77
2022/06/18 09:07:35;;;;;;;7.88;2.22;;;29.50;1.00;;;;;;5031967;28;20057;-76
2022/06/18 09:10:45;;;;;;;9.15;2.95;;;29.90;1.00;;;;;;5032046;28;20577;-76
2022/06/18 09:13:26;;;;;;;7.60;2.30;;;30.50;1.00;;;;;;5008995;28;20062;-76
2022/06/18 09:15:59;;;;;;;6.82;2.60;;;30.00;1.00;;;;;;5031505;28;20438;-75
2022/06/18 09:18:54;;;;;;;9.95;2.95;;;30.80;1.00;;;;;;5032185;28;20075;-75
2022/06/18 09:21:30;;;;;;;10.57;2.38;;;29.70;1.00;;;;;;5030905;28;20594;-75
2022/06/18 09:24:02;;;;;;;5.65;1.75;;;29.10;1.00;;;;;;5031655;28;20049;-75
2022/06/18 09:26:41;;;;;;;8.80;1.73;;;28.60;1.00;;;;;;5031680;28;20515;-74
2022/06/18 09:29:12;;;;;;;10.68;1.92;;;29.80;1.00;;;;;;5031700;28;20049;-75
2022/06/18 09:31:55;;;;;;;6.32;2.17;;;30.70;1.00;;;;;;5031307;28;20049;-75
2022/06/18 09:34:33;;;;;;;4.85;1.50;;;30.70;1.00;;;;;;5030261;28;20400;-75
2022/06/18 09:37:05;;;;;;;5.45;1.20;;;30.60;1.00;;;;;;5030279;28;20527;-76
2022/06/18 09:39:41;;;;;;;6.82;1.60;;;30.90;1.00;;;;;;5030373;28;20099;-76
2022/06/18 09:42:18;;;;;;;3.58;1.17;;;30.80;1.00;;;;;;5030812;28;20050;-76
2022/06/18 09:45:00;;;;;;;7.10;1.40;;;30.20;1.00;;;;;;5030017;28;20053;-76
2022/06/18 09:47:37;;;;;;;4.15;1.20;;;30.90;1.00;;;;;;5029982;28;20053;-76
2022/06/18 09:50:11;;;;;;;3.10;1.08;;;31.50;1.00;;;;;;5030291;28;20041;-76
2022/06/18 09:52:39;;;;;;;9.05;1.50;;;30.80;1.00;;;;;;5030547;28;20045;-76
2022/06/18 09:55:16;;;;;;;3.65;1.23;;;30.70;1.00;;;;;;5030504;28;20052;-76
2022/06/18 09:57:47;;;;;;;5.03;1.98;;;30.40;1.00;;;;;;5030717;28;20060;-76
2022/06/18 10:00:20;;;;;;;4.10;1.38;;;29.80;1.00;;;;;;5030505;28;20392;-76
2022/06/18 10:03:10;;;;;;;5.25;1.20;;;29.50;1.00;;;;;;5031229;28;20103;-75
2022/06/18 10:08:32;;;;;;;6.32;1.85;;;28.60;1.00;;;;;;5029962;28;20049;-76
2022/06/18 10:11:07;;;;;;;2.78;1.08;;;28.10;1.00;;;;;;5030918;28;20044;-76
2022/06/18 10:13:37;;;;;;;2.53;1.20;;;27.50;1.00;;;;;;5029421;28;20464;-76
2022/06/18 10:16:12;;;;;;;4.13;1.20;;;27.30;1.00;;;;;;5029162;28;20049;-75
2022/06/18 10:18:50;;;;;;;4.30;1.20;;;27.60;1.00;;;;;;5029550;28;20050;-75
2022/06/18 10:21:26;;;;;;;3.40;0.90;;;28.10;1.00;;;;;;5028156;28;20046;-76
2022/06/18 10:24:12;;;;;;;2.95;0.90;;;28.40;1.00;;;;;;5028408;28;20045;-75
2022/06/18 10:26:59;;;;;;;3.20;1.05;;;28.60;1.00;;;;;;5028984;28;20510;-76
2022/06/18 10:29:45;;;;;;;7.25;1.10;;;28.70;1.00;;;;;;5028875;28;20053;-76
2022/06/18 10:32:25;;;;;;;6.78;1.15;;;28.80;1.00;;;;;;5029962;28;20381;-76
2022/06/18 10:35:12;;;;;;;5.68;1.15;;;28.70;1.00;;;;;;5028943;28;20041;-75
2022/06/18 10:37:44;;;;;;;5.20;1.25;;;28.60;1.00;;;;;;5021390;28;20049;-75
2022/06/18 10:40:46;;;;;;;4.53;1.23;;;28.00;1.00;;;;;;5029954;28;20128;-75
2022/06/18 10:43:18;;;;;;;3.78;1.05;;;28.50;1.00;;;;;;5029703;28;20077;-75
2022/06/18 10:46:01;;;;;;;3.63;1.08;;;29.00;1.00;;;;;;5028704;28;20118;-76
2022/06/18 10:48:30;;;;;;;2.55;1.08;;;29.50;1.00;;;;;;5029478;28;20056;-75
2022/06/18 10:50:58;;;;;;;4.22;1.52;;;29.70;1.00;;;;;;5029699;28;20042;-75
2022/06/18 10:53:27;;;;;;;2.45;0.88;;;30.10;1.00;;;;;;5031122;28;20052;-76
2022/06/18 10:56:02;;;;;;;3.85;0.90;;;30.40;1.00;;;;;;5032124;28;20052;-75
2022/06/18 10:58:28;;;;;;;4.53;0.98;;;30.40;1.00;;;;;;5033372;28;20485;-75
2022/06/18 11:01:11;;;;;;;2.30;0.77;;;30.10;1.00;;;;;;5033141;28;20052;-75
2022/06/18 11:03:37;;;;;;;4.57;1.33;;;30.40;1.00;;;;;;5033334;28;20049;-75
2022/06/18 11:06:11;;;;;;;5.05;1.25;;;30.70;1.00;;;;;;5032935;28;20068;-75
2022/06/18 11:08:38;;;;;;;3.55;1.15;;;30.60;1.00;;;;;;5032151;28;20412;-75
2022/06/18 11:11:06;;;;;;;3.95;1.00;;;31.00;1.00;;;;;;5032144;28;20429;-75
2022/06/18 11:13:44;;;;;;;3.28;0.80;;;31.00;1.00;;;;;;5032674;28;20038;-74
2022/06/18 11:16:23;;;;;;;4.68;1.00;;;31.10;1.00;;;;;;5032671;28;20038;-75
2022/06/18 11:18:52;;;;;;;2.25;0.82;;;32.00;1.00;;;;;;5032169;28;20447;-75
2022/06/18 11:21:17;;;;;;;5.10;0.70;;;31.90;1.00;;;;;;5032637;28;20045;-74
2022/06/18 11:23:53;;;;;;;3.72;1.15;;;32.00;1.00;;;;;;5032654;28;20038;-75
2022/06/18 11:26:22;;;;;;;3.55;0.98;;;32.90;1.00;;;;;;5032651;28;20095;-75
2022/06/18 11:28:52;;;;;;;5.28;1.00;;;33.40;1.00;;;;;;5032230;28;20041;-75
2022/06/18 11:31:25;;;;;;;2.83;0.80;;;33.80;1.00;;;;;;5032291;28;20042;-75
2022/06/18 11:33:56;;;;;;;4.22;1.40;;;33.60;1.00;;;;;;5018430;28;20045;-75
2022/06/18 11:36:34;;;;;;;3.28;1.00;;;34.20;1.00;;;;;;5036254;28;20044;-75
2022/06/18 11:39:00;;;;;;;3.53;0.90;;;35.00;1.00;;;;;;5036118;28;20128;-75
2022/06/18 11:41:40;;;;;;;3.17;0.80;;;34.60;1.00;;;;;;5036044;28;20112;-75
2022/06/18 11:44:22;;;;;;;3.40;1.02;;;34.50;1.00;;;;;;5035788;28;20045;-76
2022/06/18 11:47:03;;;;;;;2.35;0.73;;;34.50;1.00;;;;;;5016260;28;20385;-75
2022/06/18 11:49:30;;;;;;;5.30;1.13;;;34.50;1.00;;;;;;5034271;28;20034;-75
2022/06/18 11:52:10;;;;;;;2.88;0.93;;;32.80;1.00;;;;;;5036078;28;20088;-74
2022/06/18 11:54:57;;;;;;;5.05;0.82;;;33.30;1.00;;;;;;5035780;28;20456;-74
2022/06/18 11:57:29;;;;;;;2.65;0.75;;;33.70;1.00;;;;;;5035716;28;20053;-75
2022/06/18 12:00:11;;;;;;;2.72;0.70;;;33.60;1.00;;;;;;5035563;28;20484;-75
2022/06/18 12:02:54;;;;;;;3.08;0.82;;;33.20;1.00;;;;;;5018192;28;20053;-75
2022/06/18 12:05:54;;;;;;;3.97;0.88;;;33.20;1.00;;;;;;5035477;28;20495;-75
2022/06/18 12:08:22;;;;;;;4.07;1.45;;;32.30;1.00;;;;;;5029549;28;20515;-76
2022/06/18 12:11:06;;;;;;;5.80;1.52;;;30.80;1.00;;;;;;5035222;28;20071;-76
2022/06/18 12:13:46;;;;;;;2.58;0.65;;;31.20;1.00;;;;;;5035292;28;20132;-76
2022/06/18 12:16:36;;;;;;;3.92;1.00;;;32.40;1.00;;;;;;5035013;28;20045;-74
2022/06/18 12:19:17;;;;;;;3.83;0.75;;;32.50;1.00;;;;;;5034107;28;20412;-75
2022/06/18 12:21:50;;;;;;;4.13;1.15;;;32.90;1.00;;;;;;5035139;28;20053;-75
2022/06/18 12:24:33;;;;;;;4.13;0.80;;;32.80;1.00;;;;;;5035159;28;20061;-75
2022/06/18 12:27:18;;;;;;;3.45;0.70;;;33.90;1.00;;;;;;5015337;28;20081;-75
2022/06/18 12:30:10;;;;;;;2.65;0.60;;;34.20;1.00;;;;;;5034156;28;20037;-75
2022/06/18 12:32:56;;;;;;;2.35;0.75;;;34.00;1.00;;;;;;5015809;28;20041;-75
2022/06/18 12:35:22;;;;;;;5.40;0.68;;;34.10;1.00;;;;;;5034544;28;20048;-75
2022/06/18 12:38:21;;;;;;;5.88;0.90;;;33.40;1.00;;;;;;5034683;28;20419;-75
2022/06/18 12:41:38;;;;;;;6.30;1.17;;;33.60;1.00;;;;;;5034876;28;20045;-75
2022/06/18 12:44:07;;;;;;;8.93;1.80;;;33.20;1.00;;;;;;5034143;28;20060;-75
2022/06/18 12:46:41;;;;;;;7.88;1.20;;;31.90;1.00;;;;;;5034074;28;20045;-74
2022/06/18 12:49:28;;;;;;;6.88;1.33;;;31.30;1.00;;;;;;5034532;28;20056;-74
2022/06/18 12:52:21;;;;;;;4.32;0.95;;;29.80;1.00;;;;;;5034531;28;20500;-74
2022/06/18 12:55:19;;;;;;;3.80;1.00;;;29.10;1.00;;;;;;5033953;28;20049;-74
2022/06/18 12:57:56;;;;;;;5.28;1.30;;;28.20;1.00;;;;;;5031920;28;20041;-74
2022/06/18 13:00:42;;;;;;;10.57;1.92;;;27.70;1.00;;;;;;5034072;28;20045;-74
2022/06/18 13:03:13;;;;;;;;;;;27.20;1.00;;;;;;5016772;28;20057;-74
2022/06/18 13:05:48;;;;;;;3.22;0.80;;;27.30;1.00;;;;;;5016097;28;19925;-74
2022/06/18 13:08:32;;;;;;;5.18;1.02;;;27.50;1.00;;;;;;5016190;28;20496;-74
2022/06/18 13:11:35;;;;;;;5.25;1.48;;;27.10;1.00;;;;;;5034214;28;20041;-74
2022/06/18 13:14:21;;;;;;;6.03;1.20;;;26.70;1.00;;;;;;5016761;28;20053;-74
2022/06/18 13:16:57;;;;;;;6.60;1.45;;;26.70;1.00;;;;;;5033763;28;20053;-73
2022/06/18 13:19:41;;;;;;;20.88;1.95;;;27.10;1.00;;;;;;5033162;28;20059;-73
2022/06/18 13:22:06;;;;;;;5.32;1.63;;;27.60;1.00;;;;;;5034213;28;20128;-73
2022/06/18 13:30:26;;;;;;;7.90;1.38;;;27.50;1.00;;;;;;5024377;28;20053;-73
2022/06/18 13:33:06;;;;;;;11.02;2.92;;;27.60;1.00;;;;;;5034031;28;20494;-73